Terminal Aerodrome Forecast
Issued by NWS Omaha/Valley, NE

Home | Current Version | Previous Version | Text Only | Print | Product List | Glossary Off
Versions: 1 2 3 4 5 6 7 8 9 10 11 12 13 14 15 16 17 18 19 20 21 22 23 24 25 26 27 28 29 30 31 32 33 34 35 36 37 38

087
FTUS43 KOAX 211230 CCA
TAFOFK
TAF COR
KOFK 211230Z 2112/2212 11008KT P6SM -SHRA BKN250 WS020/22040KT
      TEMPO 2113/2114 VRB10G20KT -TSRA BKN060CB
     FM211500 19011KT P6SM SCT250
     FM211800 21012KT P6SM SCT250
     FM212300 21010KT P6SM BKN250 PROB30 2123/2203 VRB25G35KT 3SM
      TSRA BKN040CB
     FM220600 22006KT P6SM BKN200
     FM220800 29005KT P6SM SCT200=

USA.gov is the U.S. government's official web portal to all federal, state and local government web resources and services.